createdAt,value
2022-08-05T00:00:51.702Z,49.74
2022-08-05T00:01:53.455Z,49.74
2022-08-05T00:02:55.144Z,49.41
2022-08-05T00:03:57.551Z,49.04
2022-08-05T00:04:59.318Z,49.71
2022-08-05T00:06:06.562Z,49.25
2022-08-05T00:07:58.884Z,49.31
2022-08-05T00:08:44.436Z,49.68
2022-08-05T00:09:49.166Z,49.88
2022-08-05T00:10:50.767Z,49.75
2022-08-05T00:11:56.208Z,50.15
2022-08-05T00:13:01.565Z,50.08
2022-08-05T00:14:13.030Z,49.89
2022-08-05T00:15:55.905Z,50.20
2022-08-05T00:16:52.984Z,50.26
2022-08-05T00:17:55.577Z,50.10
2022-08-05T00:18:57.306Z,50.47
2022-08-05T00:20:02.383Z,50.56
2022-08-05T00:21:06.505Z,50.69
2022-08-05T00:22:11.069Z,50.23
2022-08-05T00:23:13.379Z,50.50
2022-08-05T00:24:16.175Z,50.42
2022-08-05T00:25:21.072Z,50.57
2022-08-05T00:26:22.725Z,50.83
2022-08-05T00:27:36.326Z,50.81
2022-08-05T00:28:38.506Z,50.86
2022-08-05T00:29:41.501Z,50.72
2022-08-05T00:30:44.194Z,50.61
2022-08-05T00:32:10.483Z,51.06
2022-08-05T00:33:07.756Z,50.95
2022-08-05T00:34:55.990Z,51.21
2022-08-05T00:36:16.040Z,50.95
2022-08-05T00:37:14.306Z,51.25
2022-08-05T00:38:16.075Z,51.33
2022-08-05T00:39:41.380Z,51.39
2022-08-05T00:40:51.976Z,51.24
2022-08-05T00:41:55.869Z,51.28
2022-08-05T00:42:58.438Z,51.53
2022-08-05T00:44:00.273Z,51.77
2022-08-05T00:45:02.494Z,51.48
2022-08-05T00:46:04.105Z,51.24
2022-08-05T00:47:06.497Z,51.72
2022-08-05T00:48:15.922Z,52.06
2022-08-05T00:49:20.197Z,51.79
2022-08-05T00:50:21.885Z,51.57
2022-08-05T00:51:52.007Z,51.63
2022-08-05T00:52:49.171Z,51.19
2022-08-05T00:54:02.781Z,51.92
2022-08-05T00:55:05.230Z,51.87
2022-08-05T00:56:07.889Z,51.98
2022-08-05T00:57:09.771Z,51.78
2022-08-05T00:58:12.274Z,51.71
2022-08-05T00:59:14.916Z,51.68
2022-08-05T01:00:17.099Z,51.39
2022-08-05T01:01:24.990Z,51.32
2022-08-05T01:02:43.203Z,51.37
2022-08-05T01:03:45.152Z,51.89
2022-08-05T01:04:51.717Z,51.66
2022-08-05T01:05:54.670Z,51.68
2022-08-05T01:06:56.535Z,51.33
2022-08-05T01:08:40.996Z,51.41
2022-08-05T01:09:20.478Z,51.53
2022-08-05T01:10:25.796Z,51.79
2022-08-05T01:11:36.753Z,51.90
2022-08-05T01:12:38.769Z,51.58
2022-08-05T01:14:15.520Z,52.19
2022-08-05T01:15:18.169Z,52.49
2022-08-05T01:16:38.135Z,52.66
2022-08-05T01:17:44.781Z,52.68
2022-08-05T01:19:00.815Z,52.40
2022-08-05T01:20:32.117Z,52.74
2022-08-05T01:22:15.337Z,52.63
2022-08-05T01:23:56.018Z,53.02
2022-08-05T01:25:39.695Z,52.63
2022-08-05T01:26:54.931Z,53.06
2022-08-05T01:28:15.032Z,52.62
2022-08-05T01:29:45.676Z,52.53
2022-08-05T01:31:13.423Z,52.78
2022-08-05T01:32:18.607Z,53.02
2022-08-05T01:33:25.374Z,52.96
2022-08-05T01:34:42.924Z,52.86
2022-08-05T01:35:51.060Z,52.93
2022-08-05T01:37:10.793Z,52.70
2022-08-05T01:38:29.177Z,52.96
2022-08-05T01:39:45.542Z,52.62
2022-08-05T01:40:48.673Z,52.80
2022-08-05T01:41:51.281Z,53.03
2022-08-05T01:42:55.132Z,52.92
2022-08-05T01:43:56.825Z,52.96
2022-08-05T01:45:02.283Z,52.65
2022-08-05T01:46:07.380Z,53.15
2022-08-05T01:47:19.550Z,53.25
2022-08-05T01:48:21.417Z,52.79
2022-08-05T01:49:24.936Z,53.27
2022-08-05T01:50:29.661Z,53.23
2022-08-05T01:51:32.077Z,52.84
2022-08-05T01:52:34.693Z,52.54
2022-08-05T01:53:56.988Z,53.16
2022-08-05T01:55:00.520Z,53.20
2022-08-05T01:56:04.440Z,53.07
2022-08-05T01:58:10.037Z,53.04
2022-08-05T01:58:40.978Z,52.67
2022-08-05T01:59:47.387Z,52.77
2022-08-05T02:00:52.115Z,52.85
2022-08-05T02:01:54.794Z,52.97
2022-08-05T02:03:31.869Z,52.91
2022-08-05T02:04:34.961Z,52.77
2022-08-05T02:05:38.020Z,52.44
2022-08-05T02:06:45.010Z,53.06
2022-08-05T02:07:47.372Z,53.08
2022-08-05T02:09:03.134Z,53.42
2022-08-05T02:10:05.306Z,53.16
2022-08-05T02:11:12.007Z,53.23
2022-08-05T02:12:40.072Z,53.34
2022-08-05T02:13:53.666Z,53.63
2022-08-05T02:15:04.343Z,53.39
2022-08-05T02:16:16.585Z,53.44
2022-08-05T02:18:15.178Z,53.17
2022-08-05T02:18:58.375Z,52.83
2022-08-05T02:20:01.436Z,52.75
2022-08-05T02:21:15.296Z,53.61
2022-08-05T02:22:26.757Z,53.17
2022-08-05T02:23:33.810Z,52.48
2022-08-05T02:24:38.383Z,52.83
2022-08-05T02:25:50.286Z,52.77
2022-08-05T02:27:18.748Z,53.71
2022-08-05T02:28:28.864Z,53.57
2022-08-05T02:30:00.016Z,53.45
2022-08-05T02:30:59.193Z,53.11
2022-08-05T02:32:00.894Z,53.00
2022-08-05T02:33:06.706Z,53.10
2022-08-05T02:34:11.921Z,53.27
2022-08-05T02:35:19.130Z,53.39
2022-08-05T02:36:31.135Z,53.06
2022-08-05T02:37:33.458Z,53.33
2022-08-05T02:38:35.914Z,53.33
2022-08-05T02:39:41.346Z,53.30
2022-08-05T02:40:49.409Z,53.19
2022-08-05T02:42:00.680Z,53.08
2022-08-05T02:43:03.067Z,53.15
2022-08-05T02:44:13.393Z,53.32
2022-08-05T02:45:15.661Z,53.23
2022-08-05T02:46:18.091Z,52.90
2022-08-05T02:47:58.722Z,53.25
2022-08-05T02:48:51.673Z,52.83
2022-08-05T02:49:53.729Z,53.21
2022-08-05T02:50:56.154Z,53.42
2022-08-05T02:52:03.576Z,53.47
2022-08-05T02:53:05.832Z,53.30
2022-08-05T02:54:35.828Z,53.34
2022-08-05T02:55:54.486Z,53.58
2022-08-05T02:56:57.022Z,53.89
2022-08-05T02:58:11.667Z,53.64
2022-08-05T02:59:14.866Z,53.99
2022-08-05T03:00:16.746Z,53.87
2022-08-05T03:01:20.389Z,54.39
2022-08-05T03:02:27.571Z,53.76
2022-08-05T03:03:33.736Z,53.95
2022-08-05T03:04:36.036Z,54.01
2022-08-05T03:06:56.807Z,53.46
2022-08-05T03:07:00.433Z,53.34
2022-08-05T03:08:08.572Z,53.57
2022-08-05T03:09:15.787Z,54.08
2022-08-05T03:10:21.739Z,53.26
2022-08-05T03:11:57.301Z,53.61
2022-08-05T03:12:51.731Z,53.50
2022-08-05T03:14:02.675Z,52.91
2022-08-05T03:15:06.874Z,53.50
2022-08-05T03:16:09.109Z,53.04
2022-08-05T03:17:10.875Z,53.19
2022-08-05T03:18:12.499Z,54.12
2022-08-05T03:19:33.544Z,53.92
2022-08-05T03:20:38.490Z,53.41
2022-08-05T03:21:48.628Z,53.62
2022-08-05T03:22:51.615Z,53.92
2022-08-05T03:23:53.483Z,53.97
2022-08-05T03:24:55.828Z,54.19
2022-08-05T03:26:31.918Z,54.21
2022-08-05T03:27:39.166Z,54.30
2022-08-05T03:28:41.042Z,53.77
2022-08-05T03:29:45.796Z,54.33
2022-08-05T03:31:04.479Z,54.21
2022-08-05T03:32:10.092Z,54.48
2022-08-05T03:33:12.627Z,53.83
2022-08-05T03:34:14.291Z,54.61
2022-08-05T03:35:15.929Z,54.21
2022-08-05T03:36:17.546Z,54.04
2022-08-05T03:37:45.693Z,54.64
2022-08-05T03:38:52.480Z,54.30
2022-08-05T03:40:01.209Z,54.36
2022-08-05T03:41:08.139Z,54.43
2022-08-05T03:42:12.277Z,53.71
2022-08-05T03:43:16.008Z,54.26
2022-08-05T03:44:35.741Z,54.57
2022-08-05T03:45:58.137Z,54.58
2022-08-05T03:46:59.023Z,53.50
2022-08-05T03:48:00.678Z,54.09
2022-08-05T03:49:02.424Z,54.00
2022-08-05T03:50:05.381Z,54.00
2022-08-05T03:52:37.938Z,54.00
2022-08-05T03:55:34.272Z,54.05
2022-08-05T03:55:51.363Z,54.54
2022-08-05T03:56:35.681Z,54.01
2022-08-05T03:57:41.865Z,51.74
2022-08-05T03:58:46.044Z,51.24
2022-08-05T03:59:54.780Z,50.67
2022-08-05T04:00:57.333Z,50.21
2022-08-05T04:02:01.661Z,49.95
2022-08-05T04:03:03.429Z,49.63
2022-08-05T04:04:09.653Z,49.63
2022-08-05T04:05:12.217Z,49.67
2022-08-05T04:06:13.830Z,49.25
2022-08-05T04:07:15.703Z,49.04
2022-08-05T04:08:34.882Z,48.77
2022-08-05T04:09:38.497Z,48.84
2022-08-05T04:10:55.026Z,48.21
2022-08-05T04:11:57.098Z,48.12
2022-08-05T04:12:59.657Z,47.73
2022-08-05T04:14:01.358Z,47.57
2022-08-05T04:15:03.517Z,47.65
2022-08-05T04:16:06.003Z,47.49
2022-08-05T04:17:08.790Z,47.52
2022-08-05T04:18:20.413Z,47.35
2022-08-05T04:19:23.983Z,47.43
2022-08-05T04:20:25.764Z,47.38
2022-08-05T04:22:08.964Z,47.53
2022-08-05T04:22:49.496Z,47.24
2022-08-05T04:24:05.056Z,47.29
2022-08-05T04:25:09.145Z,47.21
2022-08-05T04:26:13.761Z,46.63
2022-08-05T04:27:15.516Z,46.83
2022-08-05T04:28:17.725Z,46.77
2022-08-05T04:29:19.732Z,46.56
2022-08-05T04:30:21.493Z,46.18
2022-08-05T04:31:23.108Z,46.57
2022-08-05T04:32:31.120Z,46.28
2022-08-05T04:33:54.375Z,46.25
2022-08-05T04:34:57.612Z,45.90
2022-08-05T04:36:16.050Z,46.12
2022-08-05T04:37:21.066Z,46.08
2022-08-05T04:38:43.465Z,45.84
2022-08-05T04:39:53.078Z,45.97
2022-08-05T04:40:57.388Z,46.18
2022-08-05T04:42:00.573Z,46.02
2022-08-05T04:43:05.294Z,45.69
2022-08-05T04:44:09.580Z,45.75
2022-08-05T04:45:11.551Z,45.77
2022-08-05T04:46:28.403Z,45.63
2022-08-05T04:47:30.273Z,45.32
2022-08-05T04:48:40.293Z,45.46
2022-08-05T04:50:01.756Z,45.23
2022-08-05T04:51:11.465Z,45.22
2022-08-05T04:52:13.250Z,45.43
2022-08-05T04:53:16.726Z,45.42
2022-08-05T04:54:19.771Z,45.53
2022-08-05T04:55:49.798Z,45.60
2022-08-05T04:56:43.606Z,45.57
2022-08-05T04:57:47.887Z,45.70
2022-08-05T04:58:53.282Z,45.60
2022-08-05T04:59:54.891Z,45.64
2022-08-05T05:00:56.699Z,45.93
2022-08-05T05:02:35.252Z,46.18
2022-08-05T05:03:20.514Z,46.27
2022-08-05T05:04:22.221Z,46.34
2022-08-05T05:05:28.247Z,46.20
2022-08-05T05:06:35.868Z,46.26
2022-08-05T05:07:45.762Z,46.19
2022-08-05T05:08:54.607Z,46.49
2022-08-05T05:09:57.103Z,46.62
2022-08-05T05:10:59.462Z,46.27
2022-08-05T05:12:03.059Z,46.31
2022-08-05T05:13:04.882Z,46.43
2022-08-05T05:14:06.598Z,46.64
2022-08-05T05:15:11.082Z,46.44
2022-08-05T05:16:12.761Z,46.45
2022-08-05T05:17:22.905Z,45.88
2022-08-05T05:18:28.763Z,45.72
2022-08-05T05:19:36.253Z,45.85
2022-08-05T05:20:38.929Z,45.71
2022-08-05T05:21:41.258Z,46.17
2022-08-05T05:22:44.084Z,46.02
2022-08-05T05:24:04.049Z,45.97
2022-08-05T05:25:16.586Z,45.72
2022-08-05T05:26:19.114Z,45.10
2022-08-05T05:27:21.145Z,44.03
2022-08-05T05:28:23.000Z,44.28
2022-08-05T05:29:40.949Z,44.00
2022-08-05T05:30:49.662Z,44.08
2022-08-05T05:31:51.501Z,43.97
2022-08-05T05:32:54.686Z,43.60
2022-08-05T05:34:02.252Z,43.31
2022-08-05T05:35:04.503Z,43.51
2022-08-05T05:36:07.916Z,42.87
2022-08-05T05:37:15.212Z,42.95
2022-08-05T05:38:22.698Z,42.46
2022-08-05T05:39:34.480Z,42.12
2022-08-05T05:40:37.605Z,41.76
2022-08-05T05:41:40.896Z,42.55
2022-08-05T05:42:43.603Z,41.71
2022-08-05T05:43:57.229Z,41.78
2022-08-05T05:45:03.067Z,41.64
2022-08-05T05:46:05.195Z,41.58
2022-08-05T05:47:13.332Z,40.95
2022-08-05T05:48:27.592Z,41.13
2022-08-05T05:49:29.508Z,40.84
2022-08-05T05:50:31.159Z,41.07
2022-08-05T05:51:49.911Z,40.72
2022-08-05T05:52:52.309Z,40.57
2022-08-05T05:53:59.006Z,39.76
2022-08-05T05:55:07.537Z,39.97
2022-08-05T05:56:15.440Z,40.11
2022-08-05T05:57:42.717Z,39.28
2022-08-05T05:58:49.722Z,39.39
2022-08-05T05:59:52.440Z,39.08
2022-08-05T06:00:54.543Z,38.65
2022-08-05T06:01:57.733Z,38.84
2022-08-05T06:03:01.274Z,38.42
2022-08-05T06:04:03.716Z,37.67
2022-08-05T06:05:14.659Z,37.64
2022-08-05T06:06:18.745Z,36.95
2022-08-05T06:07:24.147Z,37.05
2022-08-05T06:08:44.443Z,36.13
2022-08-05T06:10:01.392Z,36.13
2022-08-05T06:11:07.456Z,36.39
2022-08-05T06:12:09.508Z,36.67
2022-08-05T06:13:11.414Z,36.50
2022-08-05T06:14:13.029Z,36.28
2022-08-05T06:15:24.110Z,36.34
2022-08-05T06:16:30.598Z,36.36
2022-08-05T06:17:53.503Z,36.40
2022-08-05T06:18:55.972Z,35.97
2022-08-05T06:20:01.847Z,36.23
2022-08-05T06:21:04.572Z,36.54
2022-08-05T06:22:09.811Z,36.24
2022-08-05T06:23:11.417Z,35.59
2022-08-05T06:24:14.871Z,35.73
2022-08-05T06:25:24.704Z,35.85
2022-08-05T06:26:38.173Z,36.26
2022-08-05T06:28:12.351Z,35.94
2022-08-05T06:29:03.697Z,35.92
2022-08-05T06:30:23.158Z,35.69
2022-08-05T06:31:30.462Z,34.97
2022-08-05T06:32:33.885Z,35.69
2022-08-05T06:34:07.385Z,35.37
2022-08-05T06:34:58.478Z,35.22
2022-08-05T06:36:07.428Z,35.14
2022-08-05T06:37:11.591Z,35.36
2022-08-05T06:38:14.017Z,35.26
2022-08-05T06:39:17.762Z,35.29
2022-08-05T06:40:28.067Z,35.36
2022-08-05T06:41:34.736Z,34.81
2022-08-05T06:42:42.210Z,34.98
2022-08-05T06:43:57.661Z,35.08
2022-08-05T06:45:05.611Z,35.23
2022-08-05T06:46:10.401Z,34.82
2022-08-05T06:48:11.683Z,34.47
2022-08-05T06:48:53.799Z,34.88
2022-08-05T06:50:02.054Z,35.27
2022-08-05T06:51:09.505Z,35.39
2022-08-05T06:52:37.496Z,35.13
2022-08-05T06:53:33.676Z,35.44
2022-08-05T06:54:41.113Z,35.63
2022-08-05T06:55:42.877Z,35.39
2022-08-05T06:56:54.983Z,34.94
2022-08-05T06:58:20.367Z,34.78
2022-08-05T06:59:38.741Z,34.89
2022-08-05T07:00:43.823Z,35.64
2022-08-05T07:01:46.393Z,35.75
2022-08-05T07:02:54.494Z,34.82
2022-08-05T07:03:56.123Z,34.59
2022-08-05T07:04:57.807Z,34.58
2022-08-05T07:05:59.868Z,34.33
2022-08-05T07:07:01.692Z,34.52
2022-08-05T07:08:03.391Z,34.61
2022-08-05T07:09:05.963Z,34.70
2022-08-05T07:10:08.430Z,35.04
2022-08-05T07:11:15.355Z,35.08
2022-08-05T07:12:55.741Z,34.69
2022-08-05T07:14:20.486Z,33.97
2022-08-05T07:16:01.456Z,34.17
2022-08-05T07:17:57.208Z,34.07
2022-08-05T07:18:30.256Z,34.18
2022-08-05T07:20:23.167Z,34.10
2022-08-05T07:20:53.930Z,34.12
2022-08-05T07:22:00.941Z,33.88
2022-08-05T07:23:02.949Z,33.98
2022-08-05T07:24:11.245Z,34.02
2022-08-05T07:25:55.069Z,33.87
2022-08-05T07:26:34.830Z,34.56
2022-08-05T07:27:58.469Z,34.82
2022-08-05T07:28:59.911Z,33.99
2022-08-05T07:30:27.962Z,33.86
2022-08-05T07:31:41.056Z,33.49
2022-08-05T07:32:44.910Z,33.28
2022-08-05T07:33:54.966Z,33.48
2022-08-05T07:35:01.479Z,33.13
2022-08-05T07:36:24.277Z,33.23
2022-08-05T07:37:29.096Z,33.03
2022-08-05T07:38:43.341Z,33.25
2022-08-05T07:40:03.990Z,33.70
2022-08-05T07:42:07.354Z,33.35
2022-08-05T07:42:36.382Z,33.66
2022-08-05T07:43:38.137Z,33.27
2022-08-05T07:44:39.753Z,32.86
2022-08-05T07:45:57.479Z,33.67
2022-08-05T07:47:00.140Z,33.71
2022-08-05T07:48:02.111Z,33.44
2022-08-05T07:49:06.230Z,33.30
2022-08-05T07:50:09.936Z,33.56
2022-08-05T07:51:23.450Z,33.22
2022-08-05T07:52:35.938Z,33.67
2022-08-05T07:53:50.419Z,33.14
2022-08-05T07:54:52.714Z,32.68
2022-08-05T07:56:06.438Z,33.45
2022-08-05T07:57:55.141Z,32.76
2022-08-05T07:58:57.468Z,33.21
2022-08-05T07:59:59.558Z,32.89
2022-08-05T08:01:01.449Z,32.69
2022-08-05T08:02:16.015Z,32.76
2022-08-05T08:03:18.858Z,32.40
2022-08-05T08:04:37.930Z,32.36
2022-08-05T08:05:47.549Z,32.20
2022-08-05T08:06:51.483Z,32.87
2022-08-05T08:07:53.330Z,32.78
2022-08-05T08:09:01.951Z,32.22
2022-08-05T08:10:04.049Z,32.05
2022-08-05T08:11:08.868Z,31.48
2022-08-05T08:12:30.632Z,31.76
2022-08-05T08:13:43.022Z,32.04
2022-08-05T08:14:51.247Z,31.96
2022-08-05T08:16:34.928Z,32.65
2022-08-05T08:17:20.588Z,32.43
2022-08-05T08:18:23.252Z,32.51
2022-08-05T08:20:43.664Z,31.93
2022-08-05T08:21:02.897Z,31.78
2022-08-05T08:22:05.920Z,32.22
2022-08-05T08:24:00.377Z,32.10
2022-08-05T08:24:37.089Z,31.90
2022-08-05T08:25:59.980Z,31.96
2022-08-05T08:27:03.364Z,32.52
2022-08-05T08:28:17.961Z,32.20
2022-08-05T08:30:04.570Z,32.39
2022-08-05T08:30:47.723Z,31.67
2022-08-05T08:31:52.272Z,31.90
2022-08-05T08:32:53.922Z,31.53
2022-08-05T08:33:56.393Z,31.50
2022-08-05T08:34:58.727Z,31.35
2022-08-05T08:36:29.623Z,31.88
2022-08-05T08:37:28.070Z,31.39
2022-08-05T08:38:32.217Z,31.49
2022-08-05T08:39:38.151Z,31.56
2022-08-05T08:40:51.684Z,31.50
2022-08-05T08:41:59.612Z,32.01
2022-08-05T08:45:21.152Z,32.03
2022-08-05T08:45:22.914Z,30.50
2022-08-05T08:45:46.658Z,31.14
2022-08-05T08:46:49.100Z,31.23
2022-08-05T08:48:10.519Z,31.09
2022-08-05T08:50:03.833Z,30.79
2022-08-05T08:51:03.599Z,30.99
2022-08-05T08:52:13.926Z,30.72
2022-08-05T08:53:16.556Z,29.77
2022-08-05T08:54:18.208Z,29.48
2022-08-05T08:55:32.116Z,29.35
2022-08-05T08:56:47.890Z,29.00
2022-08-05T08:57:58.456Z,29.21
2022-08-05T08:59:07.071Z,30.18
2022-08-05T09:00:19.470Z,30.12
2022-08-05T09:01:21.404Z,30.49
2022-08-05T09:02:26.509Z,29.27
2022-08-05T09:03:28.692Z,29.07
2022-08-05T09:04:57.792Z,28.94
2022-08-05T09:06:09.202Z,28.95
2022-08-05T09:07:19.642Z,29.00
2022-08-05T09:08:30.961Z,28.85
2022-08-05T09:09:35.607Z,29.08
2022-08-05T09:10:43.457Z,28.52
2022-08-05T09:11:53.770Z,28.77
2022-08-05T09:13:04.980Z,29.11
2022-08-05T09:14:54.359Z,28.42
2022-08-05T09:15:28.733Z,28.84
2022-08-05T09:16:32.178Z,28.46
2022-08-05T09:17:42.942Z,28.42
2022-08-05T09:18:48.747Z,28.61
2022-08-05T09:20:01.712Z,28.56
2022-08-05T09:21:05.023Z,28.81
2022-08-05T09:22:22.532Z,28.51
2022-08-05T09:23:37.450Z,28.31
2022-08-05T09:24:57.443Z,27.80
2022-08-05T09:26:09.174Z,28.02
2022-08-05T09:27:11.053Z,27.76
2022-08-05T09:28:32.317Z,27.87
2022-08-05T09:29:47.522Z,27.73
2022-08-05T09:30:57.811Z,27.79
2022-08-05T09:32:45.964Z,28.03
2022-08-05T09:33:34.864Z,28.53
2022-08-05T09:34:50.070Z,27.88
2022-08-05T09:36:16.504Z,27.38
2022-08-05T09:38:17.424Z,27.60
2022-08-05T09:38:55.994Z,27.87
2022-08-05T09:39:58.866Z,27.76
2022-08-05T09:41:08.176Z,27.92
2022-08-05T09:42:11.419Z,27.91
2022-08-05T09:43:41.224Z,27.74
2022-08-05T09:44:44.940Z,27.26
2022-08-05T09:46:06.525Z,27.34
2022-08-05T09:47:16.995Z,27.12
2022-08-05T09:48:28.439Z,26.96
2022-08-05T09:49:40.275Z,27.47
2022-08-05T09:50:54.497Z,27.02
2022-08-05T09:51:56.253Z,27.27
2022-08-05T09:52:57.962Z,27.25
2022-08-05T09:54:00.410Z,27.29
2022-08-05T09:55:58.137Z,27.07
2022-08-05T09:56:33.602Z,27.30
2022-08-05T09:57:45.471Z,27.16
2022-08-05T09:59:09.170Z,27.14
2022-08-05T10:00:14.381Z,27.55
2022-08-05T10:01:31.630Z,27.15
2022-08-05T10:02:44.123Z,27.10
2022-08-05T10:04:04.629Z,26.96
2022-08-05T10:05:18.130Z,27.10
2022-08-05T10:06:22.525Z,27.74
2022-08-05T10:07:59.406Z,27.69
2022-08-05T10:08:50.358Z,27.60
2022-08-05T10:10:14.228Z,26.79
2022-08-05T10:11:17.259Z,26.27
2022-08-05T10:12:33.250Z,26.29
2022-08-05T10:13:47.751Z,25.81
2022-08-05T10:14:50.184Z,26.26
2022-08-05T10:15:58.358Z,26.23
2022-08-05T10:17:37.592Z,26.12
2022-08-05T10:18:35.871Z,26.39
2022-08-05T10:20:03.043Z,26.06
2022-08-05T10:21:06.332Z,26.06
2022-08-05T10:22:15.797Z,26.00
2022-08-05T10:23:55.373Z,26.05
2022-08-05T10:24:55.498Z,25.94
2022-08-05T10:25:58.845Z,25.97
2022-08-05T10:27:01.828Z,25.70
2022-08-05T10:28:09.230Z,25.55
2022-08-05T10:29:14.268Z,25.01
2022-08-05T10:31:20.376Z,24.79
2022-08-05T10:32:52.142Z,25.47
2022-08-05T10:33:14.555Z,25.88
2022-08-05T10:34:17.032Z,25.31
2022-08-05T10:35:20.154Z,25.36
2022-08-05T10:36:38.535Z,25.38
2022-08-05T10:37:44.891Z,25.48
2022-08-05T10:38:47.242Z,25.13
2022-08-05T10:39:59.035Z,25.10
2022-08-05T10:41:46.721Z,25.32
2022-08-05T10:42:51.029Z,25.98
2022-08-05T10:44:01.952Z,25.91
2022-08-05T10:45:20.947Z,25.78
2022-08-05T10:46:50.585Z,25.63
2022-08-05T10:48:30.213Z,25.36
2022-08-05T10:49:17.462Z,24.76
2022-08-05T10:50:36.342Z,24.62
2022-08-05T10:51:48.614Z,24.77
2022-08-05T10:53:01.821Z,24.86
2022-08-05T10:54:23.186Z,25.27
2022-08-05T10:55:25.304Z,25.18
2022-08-05T10:56:28.324Z,25.16
2022-08-05T10:57:32.021Z,25.10
2022-08-05T10:58:48.830Z,25.54
2022-08-05T11:00:18.741Z,25.32
2022-08-05T11:01:54.883Z,25.32
2022-08-05T11:03:24.551Z,25.43
2022-08-05T11:04:27.731Z,25.23
2022-08-05T11:05:33.164Z,25.15
2022-08-05T11:06:36.295Z,25.15
2022-08-05T11:08:01.710Z,25.47
2022-08-05T11:09:18.756Z,25.65
2022-08-05T11:10:37.063Z,25.42
2022-08-05T11:11:44.356Z,24.95
2022-08-05T11:12:55.587Z,25.00
2022-08-05T11:13:58.235Z,25.18
2022-08-05T11:15:19.277Z,25.38
2022-08-05T11:16:23.133Z,25.05
2022-08-05T11:17:57.922Z,25.25
2022-08-05T11:20:10.938Z,25.60
2022-08-05T11:20:48.447Z,25.78
2022-08-05T11:21:50.087Z,25.32
2022-08-05T11:22:54.433Z,25.14
2022-08-05T11:24:30.677Z,24.99
2022-08-05T11:26:04.555Z,24.88
2022-08-05T11:27:29.562Z,24.92
2022-08-05T11:28:54.638Z,24.87
2022-08-05T11:29:59.749Z,24.58
2022-08-05T11:31:06.514Z,24.45
2022-08-05T11:32:29.173Z,24.31
2022-08-05T11:33:46.111Z,24.52
2022-08-05T11:34:51.709Z,24.77
2022-08-05T11:36:08.384Z,25.01
2022-08-05T11:38:36.952Z,24.91
2022-08-05T11:38:45.823Z,24.43
2022-08-05T11:40:00.236Z,24.51
2022-08-05T11:41:57.877Z,24.56
2022-08-05T11:42:40.860Z,24.58
2022-08-05T11:44:04.870Z,24.37
2022-08-05T11:45:22.982Z,24.34
2022-08-05T11:47:10.181Z,24.06
2022-08-05T11:48:11.585Z,24.19
2022-08-05T11:49:13.959Z,23.91
2022-08-05T11:50:16.458Z,23.38
2022-08-05T11:51:44.346Z,23.66
2022-08-05T11:52:39.669Z,23.99
2022-08-05T11:53:46.940Z,24.42
2022-08-05T11:54:54.753Z,24.36
2022-08-05T11:55:59.362Z,24.20
2022-08-05T11:57:02.267Z,23.49
2022-08-05T11:58:11.999Z,23.83
2022-08-05T11:59:24.242Z,23.82
2022-08-05T12:00:30.363Z,23.44
2022-08-05T12:01:32.204Z,23.74
2022-08-05T12:02:36.257Z,23.91
2022-08-05T12:03:55.735Z,24.33
2022-08-05T12:05:00.153Z,24.04
2022-08-05T12:06:06.216Z,23.81
2022-08-05T12:07:12.882Z,23.74
2022-08-05T12:08:18.116Z,23.90
2022-08-05T12:09:52.802Z,24.20
2022-08-05T12:10:48.695Z,23.98
2022-08-05T12:11:50.767Z,23.84
2022-08-05T12:12:59.513Z,23.85
2022-08-05T12:14:06.907Z,24.17
2022-08-05T12:15:18.541Z,23.98
2022-08-05T12:16:20.378Z,24.19
2022-08-05T12:18:00.600Z,24.51
2022-08-05T12:18:53.040Z,24.37
2022-08-05T12:20:25.960Z,24.08
2022-08-05T12:21:18.900Z,24.67
2022-08-05T12:22:27.024Z,24.33
2022-08-05T12:23:28.863Z,24.26
2022-08-05T12:24:31.380Z,24.13
2022-08-05T12:25:51.318Z,24.16
2022-08-05T12:26:53.725Z,24.00
2022-08-05T12:27:55.348Z,24.01
2022-08-05T12:28:57.728Z,23.96
2022-08-05T12:30:03.305Z,24.00
2022-08-05T12:31:05.340Z,24.84
2022-08-05T12:32:07.613Z,24.93
2022-08-05T12:33:27.210Z,24.57
2022-08-05T12:34:35.738Z,24.34
2022-08-05T12:35:39.880Z,24.57
2022-08-05T12:36:44.931Z,24.44
2022-08-05T12:37:47.931Z,24.21
2022-08-05T12:38:49.950Z,24.15
2022-08-05T12:39:53.897Z,24.26
2022-08-05T12:40:56.802Z,24.06
2022-08-05T12:41:59.727Z,24.27
2022-08-05T12:43:01.360Z,24.15
2022-08-05T12:44:11.473Z,24.45
2022-08-05T12:45:15.751Z,24.42
2022-08-05T12:46:29.381Z,24.24
2022-08-05T12:47:31.947Z,24.27
2022-08-05T12:48:39.967Z,24.27
2022-08-05T12:50:03.937Z,24.02
2022-08-05T12:52:10.511Z,24.63
2022-08-05T12:52:38.641Z,24.50
2022-08-05T12:53:44.502Z,24.26
2022-08-05T12:54:57.730Z,24.37
2022-08-05T12:56:00.706Z,24.04
2022-08-05T12:57:04.800Z,24.14
2022-08-05T12:58:52.493Z,24.15
2022-08-05T13:01:58.061Z,24.46
2022-08-05T13:02:02.286Z,24.71
2022-08-05T13:02:40.036Z,25.37
2022-08-05T13:03:43.211Z,25.03
2022-08-05T13:04:54.432Z,24.62
2022-08-05T13:05:56.421Z,24.49
2022-08-05T13:06:58.993Z,24.89
2022-08-05T13:08:01.818Z,24.88
2022-08-05T13:09:12.540Z,24.62
2022-08-05T13:10:19.733Z,23.86
2022-08-05T13:12:03.124Z,24.29
2022-08-05T13:12:51.146Z,23.88
2022-08-05T13:14:06.742Z,24.23
2022-08-05T13:15:16.414Z,23.98
2022-08-05T13:16:20.304Z,24.22
2022-08-05T13:17:31.660Z,23.74
2022-08-05T13:18:51.307Z,24.08
2022-08-05T13:20:00.913Z,23.94
2022-08-05T13:21:02.675Z,24.03
2022-08-05T13:22:05.703Z,23.94
2022-08-05T13:23:07.626Z,23.80
2022-08-05T13:24:09.387Z,23.71
2022-08-05T13:25:19.303Z,23.45
2022-08-05T13:26:29.867Z,23.81
2022-08-05T13:27:51.887Z,23.48
2022-08-05T13:28:54.225Z,23.42
2022-08-05T13:30:31.404Z,23.57
2022-08-05T13:31:17.513Z,23.20
2022-08-05T13:32:39.430Z,23.37
2022-08-05T13:34:23.559Z,23.51
2022-08-05T13:35:06.228Z,23.66
2022-08-05T13:36:09.247Z,23.45
2022-08-05T13:37:11.189Z,23.92
2022-08-05T13:38:28.260Z,23.69
2022-08-05T13:40:13.439Z,23.85
2022-08-05T13:40:54.747Z,24.49
2022-08-05T13:41:56.547Z,24.22
2022-08-05T13:42:58.607Z,24.18
2022-08-05T13:44:00.401Z,24.14
2022-08-05T13:45:02.169Z,24.22
2022-08-05T13:46:03.782Z,24.17
2022-08-05T13:47:08.361Z,23.82
2022-08-05T13:48:58.774Z,23.93
2022-08-05T13:49:32.196Z,24.50
2022-08-05T13:50:37.055Z,23.74
2022-08-05T13:51:40.888Z,23.74
2022-08-05T13:52:42.943Z,23.75
2022-08-05T13:53:47.875Z,23.64
2022-08-05T13:54:53.392Z,23.91
2022-08-05T13:56:00.241Z,23.66
2022-08-05T13:57:03.862Z,23.91
2022-08-05T13:58:08.010Z,23.84
2022-08-05T13:59:19.772Z,23.81
2022-08-05T14:00:27.574Z,23.73
2022-08-05T14:01:44.366Z,23.72
2022-08-05T14:02:51.252Z,23.93
2022-08-05T14:04:11.457Z,23.81
2022-08-05T14:05:19.346Z,24.08
2022-08-05T14:06:31.310Z,23.95
2022-08-05T14:08:00.111Z,23.89
2022-08-05T14:08:56.151Z,23.51
2022-08-05T14:10:01.455Z,23.89
2022-08-05T14:11:20.413Z,23.81
2022-08-05T14:12:32.606Z,23.78
2022-08-05T14:13:34.617Z,23.73
2022-08-05T14:14:36.244Z,23.62
2022-08-05T14:16:07.008Z,23.86
2022-08-05T14:16:59.996Z,23.98
2022-08-05T14:18:02.487Z,24.04
2022-08-05T14:19:05.507Z,23.81
2022-08-05T14:20:07.934Z,23.74
2022-08-05T14:22:08.682Z,23.46
2022-08-05T14:22:34.434Z,23.43
2022-08-05T14:23:37.625Z,23.31
2022-08-05T14:24:40.156Z,23.30
2022-08-05T14:25:44.998Z,23.60
2022-08-05T14:27:01.982Z,23.84
2022-08-05T14:28:08.719Z,24.12
2022-08-05T14:29:24.397Z,24.11
2022-08-05T14:30:28.110Z,23.95
2022-08-05T14:31:54.333Z,23.96
2022-08-05T14:32:52.352Z,23.77
2022-08-05T14:33:59.422Z,24.04
2022-08-05T14:35:02.025Z,24.16
2022-08-05T14:36:04.374Z,24.11
2022-08-05T14:37:05.993Z,23.86
2022-08-05T14:38:07.617Z,24.03
2022-08-05T14:39:29.306Z,24.11
2022-08-05T14:40:30.983Z,24.05
2022-08-05T14:41:32.995Z,24.32
2022-08-05T14:42:35.001Z,24.03
2022-08-05T14:44:02.134Z,24.11
2022-08-05T14:45:01.282Z,24.15
2022-08-05T14:46:02.923Z,23.94
2022-08-05T14:47:04.717Z,24.14
2022-08-05T14:48:10.511Z,24.09
2022-08-05T14:49:58.493Z,24.10
2022-08-05T14:50:53.787Z,24.20
2022-08-05T14:51:55.943Z,24.02
2022-08-05T14:52:59.586Z,24.29
2022-08-05T14:54:27.464Z,24.21
2022-08-05T14:55:24.542Z,24.02
2022-08-05T14:56:26.286Z,24.49
2022-08-05T14:57:34.111Z,24.24
2022-08-05T14:58:53.150Z,24.13
2022-08-05T14:59:54.966Z,24.16
2022-08-05T15:01:00.266Z,24.30